createdAt,value
2018-12-27T00:01:41.525Z,1.80
2018-12-27T00:04:19.101Z,1.80
2018-12-27T00:06:50.806Z,1.80
2018-12-27T00:09:24.139Z,1.80
2018-12-27T00:11:54.048Z,1.70
2018-12-27T00:14:23.712Z,1.70
2018-12-27T00:16:53.259Z,1.70
2018-12-27T00:19:25.924Z,1.70
2018-12-27T00:21:58.649Z,1.80
2018-12-27T00:24:29.609Z,1.70
2018-12-27T00:27:01.460Z,1.70
2018-12-27T00:29:36.769Z,1.80
2018-12-27T00:32:08.618Z,1.90
2018-12-27T00:34:42.891Z,1.80
2018-12-27T00:37:16.814Z,1.80
2018-12-27T00:39:47.905Z,1.80
2018-12-27T00:42:20.246Z,1.80
2018-12-27T00:44:50.687Z,1.80
2018-12-27T00:47:25.236Z,1.90
2018-12-27T00:49:58.819Z,2.10
2018-12-27T00:52:34.409Z,2.00
2018-12-27T00:55:05.544Z,1.90
2018-12-27T00:57:39.477Z,2.00
2018-12-27T01:00:11.478Z,2.00
2018-12-27T01:02:43.867Z,2.00
2018-12-27T01:05:14.860Z,1.90
2018-12-27T01:07:44.412Z,1.90
2018-12-27T01:10:13.796Z,1.90
2018-12-27T01:12:42.580Z,2.00
2018-12-27T01:15:14.895Z,2.00
2018-12-27T01:17:46.317Z,1.90
2018-12-27T01:20:18.673Z,2.00
2018-12-27T01:22:51.376Z,2.00
2018-12-27T01:25:23.476Z,2.00
2018-12-27T01:27:53.617Z,2.00
2018-12-27T01:30:23.749Z,2.00
2018-12-27T01:32:53.308Z,2.00
2018-12-27T01:35:22.375Z,2.10
2018-12-27T01:37:53.681Z,2.00
2018-12-27T01:40:27.497Z,2.00
2018-12-27T01:43:00.107Z,2.00
2018-12-27T01:45:31.666Z,1.90
2018-12-27T01:48:03.457Z,2.00
2018-12-27T01:50:40.434Z,1.90
2018-12-27T01:53:11.513Z,1.80
2018-12-27T01:55:43.313Z,1.80
2018-12-27T01:58:15.894Z,1.80
2018-12-27T02:00:47.631Z,1.80
2018-12-27T02:03:26.416Z,1.80
2018-12-27T02:05:55.590Z,1.80
2018-12-27T02:08:27.577Z,1.80
2018-12-27T02:11:01.031Z,1.80
2018-12-27T02:13:34.028Z,1.70
2018-12-27T02:16:05.554Z,1.70
2018-12-27T02:18:35.460Z,1.70
2018-12-27T02:21:07.589Z,1.70
2018-12-27T02:23:38.486Z,1.70
2018-12-27T02:26:09.897Z,1.60
2018-12-27T02:28:39.484Z,1.60
2018-12-27T02:31:09.679Z,1.60
2018-12-27T02:33:39.177Z,1.60
2018-12-27T02:36:09.182Z,1.60
2018-12-27T02:38:39.100Z,1.50
2018-12-27T02:41:09.975Z,1.50
2018-12-27T02:43:38.813Z,1.50
2018-12-27T02:46:08.987Z,1.50
2018-12-27T02:48:39.697Z,1.50
2018-12-27T02:51:12.073Z,1.50
2018-12-27T02:53:45.833Z,1.50
2018-12-27T02:56:17.328Z,1.40
2018-12-27T02:58:50.849Z,1.30
2018-12-27T03:01:22.858Z,1.30
2018-12-27T03:03:54.703Z,1.30
2018-12-27T03:06:26.783Z,1.20
2018-12-27T03:08:57.737Z,1.20
2018-12-27T03:11:29.520Z,1.20
2018-12-27T03:14:01.132Z,1.20
2018-12-27T03:16:35.036Z,1.10
2018-12-27T03:19:06.646Z,1.10
2018-12-27T03:21:38.570Z,1.10
2018-12-27T03:24:12.251Z,1.10
2018-12-27T03:26:46.499Z,1.10
2018-12-27T03:29:17.421Z,1.10
2018-12-27T03:31:49.206Z,1.20
2018-12-27T03:34:23.400Z,1.10
2018-12-27T03:36:54.112Z,1.10
2018-12-27T03:39:26.660Z,1.20
2018-12-27T03:41:58.483Z,1.10
2018-12-27T03:44:31.314Z,1.10
2018-12-27T03:47:02.650Z,1.10
2018-12-27T03:49:34.794Z,1.10
2018-12-27T03:52:07.301Z,1.10
2018-12-27T03:54:40.877Z,1.10
2018-12-27T03:57:14.913Z,1.20
2018-12-27T03:59:47.530Z,1.10
2018-12-27T04:02:19.026Z,1.10
2018-12-27T04:04:52.617Z,1.00
2018-12-27T04:07:24.210Z,1.10
2018-12-27T04:09:57.674Z,1.10
2018-12-27T04:12:29.001Z,1.10
2018-12-27T04:15:08.843Z,1.10
2018-12-27T04:17:40.389Z,0.90
2018-12-27T04:20:12.214Z,0.90
2018-12-27T04:22:45.638Z,0.90
2018-12-27T04:25:15.465Z,1.00
2018-12-27T04:27:47.751Z,1.00
2018-12-27T04:30:19.562Z,1.00
2018-12-27T04:32:51.116Z,1.10
2018-12-27T04:35:23.161Z,1.10
2018-12-27T04:37:54.865Z,1.10
2018-12-27T04:40:27.159Z,1.20
2018-12-27T04:42:59.378Z,1.30
2018-12-27T04:45:30.459Z,1.30
2018-12-27T04:48:03.470Z,1.30
2018-12-27T04:50:37.124Z,1.30
2018-12-27T04:53:11.511Z,1.40
2018-12-27T04:55:43.671Z,1.30
2018-12-27T04:58:15.189Z,1.30
2018-12-27T05:00:47.289Z,1.30
2018-12-27T05:03:19.261Z,1.20
2018-12-27T05:05:50.253Z,1.30
2018-12-27T05:08:20.488Z,1.20
2018-12-27T05:10:49.713Z,1.20
2018-12-27T05:13:18.544Z,1.30
2018-12-27T05:15:49.360Z,1.20
2018-12-27T05:18:21.690Z,1.10
2018-12-27T05:20:51.537Z,1.10
2018-12-27T05:23:24.682Z,1.10
2018-12-27T05:25:56.117Z,1.20
2018-12-27T05:28:29.061Z,1.00
2018-12-27T05:31:01.618Z,1.00
2018-12-27T05:33:32.607Z,1.00
2018-12-27T05:36:03.113Z,1.00
2018-12-27T05:38:34.998Z,1.00
2018-12-27T05:41:05.478Z,1.00
2018-12-27T05:43:39.113Z,1.00
2018-12-27T05:46:11.181Z,0.90
2018-12-27T05:49:03.341Z,0.80
2018-12-27T05:51:37.023Z,0.70
2018-12-27T05:54:09.492Z,0.70
2018-12-27T05:56:41.430Z,0.80
2018-12-27T05:59:13.376Z,0.70
2018-12-27T06:01:45.834Z,0.60
2018-12-27T06:04:17.978Z,0.60
2018-12-27T06:06:51.508Z,0.70
2018-12-27T06:09:24.038Z,0.70
2018-12-27T06:11:54.745Z,0.70
2018-12-27T06:14:24.454Z,0.80
2018-12-27T06:16:54.454Z,0.80
2018-12-27T06:19:28.171Z,0.70
2018-12-27T06:22:01.679Z,0.70
2018-12-27T06:24:34.425Z,0.70
2018-12-27T06:27:06.270Z,0.70
2018-12-27T06:29:36.301Z,0.70
2018-12-27T06:32:08.778Z,0.70
2018-12-27T06:34:41.619Z,0.80
2018-12-27T06:37:14.289Z,0.70
2018-12-27T06:39:45.297Z,0.70
2018-12-27T06:42:16.746Z,0.70
2018-12-27T06:44:49.870Z,0.70
2018-12-27T06:47:23.771Z,0.70
2018-12-27T06:49:57.137Z,0.80
2018-12-27T06:52:29.085Z,0.70
2018-12-27T06:55:01.900Z,0.70
2018-12-27T06:57:33.777Z,0.60
2018-12-27T07:00:05.428Z,0.60
2018-12-27T07:02:38.029Z,0.60
2018-12-27T07:05:09.446Z,0.50
2018-12-27T07:07:39.177Z,0.50
2018-12-27T07:10:09.295Z,0.50
2018-12-27T07:12:39.225Z,0.50
2018-12-27T07:15:11.909Z,0.40
2018-12-27T07:17:42.012Z,0.40
2018-12-27T07:20:13.101Z,0.40
2018-12-27T07:22:42.725Z,0.40
2018-12-27T07:25:14.906Z,0.40
2018-12-27T07:27:44.204Z,0.40
2018-12-27T07:30:13.929Z,0.50
2018-12-27T07:32:42.700Z,0.60
2018-12-27T07:35:13.625Z,0.60
2018-12-27T07:37:44.609Z,0.50
2018-12-27T07:40:16.063Z,0.50
2018-12-27T07:42:46.974Z,0.50
2018-12-27T07:45:18.789Z,0.50
2018-12-27T07:47:59.957Z,0.40
2018-12-27T07:50:30.889Z,0.40
2018-12-27T07:53:05.300Z,0.40
2018-12-27T07:55:38.003Z,0.30
2018-12-27T07:58:13.105Z,0.40
2018-12-27T08:00:45.617Z,0.30
2018-12-27T08:03:19.051Z,0.40
2018-12-27T08:05:52.627Z,0.50
2018-12-27T08:08:26.069Z,0.40
2018-12-27T08:10:59.705Z,0.30
2018-12-27T08:13:33.485Z,0.40
2018-12-27T08:16:05.994Z,0.30
2018-12-27T08:18:38.010Z,0.40
2018-12-27T08:21:09.744Z,0.40
2018-12-27T08:23:41.174Z,0.40
2018-12-27T08:26:10.265Z,0.40
2018-12-27T08:28:39.342Z,0.40
2018-12-27T08:31:09.037Z,0.40
2018-12-27T08:33:41.325Z,0.30
2018-12-27T08:36:13.857Z,0.20
2018-12-27T08:38:45.198Z,0.20
2018-12-27T08:41:15.727Z,0.30
2018-12-27T08:43:51.452Z,0.40
2018-12-27T08:46:22.860Z,0.30
2018-12-27T08:48:57.416Z,0.30
2018-12-27T08:51:30.970Z,0.30
2018-12-27T08:54:04.471Z,0.20
2018-12-27T08:56:36.201Z,0.20
2018-12-27T08:59:10.122Z,0.30
2018-12-27T09:01:44.108Z,0.50
2018-12-27T09:04:15.566Z,0.30
2018-12-27T09:06:47.094Z,0.20
2018-12-27T09:09:18.700Z,0.20
2018-12-27T09:11:52.354Z,0.20
2018-12-27T09:14:23.992Z,0.20
2018-12-27T09:16:57.970Z,0.30
2018-12-27T09:19:30.152Z,0.40
2018-12-27T09:22:01.022Z,0.40
2018-12-27T09:24:31.926Z,0.50
2018-12-27T09:27:04.522Z,0.60
2018-12-27T09:29:35.993Z,0.60
2018-12-27T09:32:06.561Z,0.70
2018-12-27T09:34:40.075Z,0.70
2018-12-27T09:37:12.766Z,0.70
2018-12-27T09:39:45.708Z,0.60
2018-12-27T09:42:16.628Z,0.60
2018-12-27T09:44:48.561Z,0.60
2018-12-27T09:47:18.988Z,0.60
2018-12-27T09:49:49.736Z,0.60
2018-12-27T09:52:22.166Z,0.60
2018-12-27T09:54:53.750Z,0.50
2018-12-27T09:57:24.554Z,0.60
2018-12-27T09:59:59.082Z,0.50
2018-12-27T10:02:34.469Z,0.60
2018-12-27T10:05:06.933Z,0.60
2018-12-27T10:07:39.301Z,0.60
2018-12-27T10:10:10.773Z,0.60
2018-12-27T10:12:42.745Z,0.60
2018-12-27T10:15:14.132Z,0.60
2018-12-27T10:17:45.590Z,0.70
2018-12-27T10:20:17.933Z,0.70
2018-12-27T10:22:50.928Z,0.80
2018-12-27T10:25:23.309Z,0.80
2018-12-27T10:27:55.704Z,0.80
2018-12-27T10:30:30.377Z,0.80
2018-12-27T10:33:01.884Z,0.80
2018-12-27T10:35:31.852Z,0.90
2018-12-27T10:38:02.738Z,0.90
2018-12-27T10:40:36.340Z,0.90
2018-12-27T10:43:06.833Z,0.90
2018-12-27T10:45:40.151Z,0.90
2018-12-27T10:48:12.020Z,1.00
2018-12-27T10:50:43.237Z,1.00
2018-12-27T10:53:16.552Z,1.00
2018-12-27T10:55:50.314Z,1.00
2018-12-27T10:58:26.093Z,0.90
2018-12-27T11:00:56.398Z,1.00
2018-12-27T11:03:31.310Z,1.10
2018-12-27T11:06:04.114Z,1.10
2018-12-27T11:08:34.953Z,1.10
2018-12-27T11:11:05.814Z,1.10
2018-12-27T11:13:35.867Z,1.10
2018-12-27T11:16:07.281Z,1.10
2018-12-27T11:18:38.873Z,1.10
2018-12-27T11:21:11.033Z,1.20
2018-12-27T11:23:43.573Z,1.20
2018-12-27T11:26:18.027Z,1.20
2018-12-27T11:28:50.405Z,1.20
2018-12-27T11:31:21.976Z,1.20
2018-12-27T11:33:53.994Z,1.30
2018-12-27T11:36:25.993Z,1.20
2018-12-27T11:38:59.735Z,1.20
2018-12-27T11:41:33.642Z,1.20
2018-12-27T11:44:06.865Z,1.20
2018-12-27T11:46:37.541Z,1.20
2018-12-27T11:49:08.517Z,1.20
2018-12-27T11:51:40.539Z,1.20
2018-12-27T11:54:10.791Z,1.20
2018-12-27T11:56:40.210Z,1.20
2018-12-27T11:59:12.501Z,1.30
2018-12-27T12:01:42.653Z,1.20
2018-12-27T12:04:12.204Z,1.10
2018-12-27T12:06:45.833Z,1.10
2018-12-27T12:09:17.134Z,1.10
2018-12-27T12:11:50.697Z,1.10
2018-12-27T12:14:23.594Z,1.00
2018-12-27T12:16:56.872Z,1.00
2018-12-27T12:19:29.833Z,0.90
2018-12-27T12:22:01.331Z,0.90
2018-12-27T12:24:33.156Z,0.80
2018-12-27T12:27:05.688Z,0.80
2018-12-27T12:29:36.628Z,0.80
2018-12-27T12:32:07.793Z,0.80
2018-12-27T12:34:39.113Z,0.70
2018-12-27T12:37:13.971Z,0.60
2018-12-27T12:39:42.573Z,0.60
2018-12-27T12:42:15.599Z,0.60
2018-12-27T12:44:46.816Z,0.50
2018-12-27T12:47:36.689Z,0.40
2018-12-27T12:50:08.333Z,0.40
2018-12-27T12:52:39.691Z,0.40
2018-12-27T12:55:10.500Z,0.20
2018-12-27T12:57:42.153Z,0.20
2018-12-27T13:00:14.997Z,0.30
2018-12-27T13:02:49.354Z,0.30
2018-12-27T13:05:18.941Z,0.20
2018-12-27T13:07:51.744Z,0.30
2018-12-27T13:10:23.183Z,0.20
2018-12-27T13:12:55.600Z,0.20
2018-12-27T13:15:26.764Z,0.20
2018-12-27T13:17:57.713Z,0.20
2018-12-27T13:20:30.644Z,0.10
2018-12-27T13:23:01.526Z,0.10
2018-12-27T13:25:33.479Z,0.10
2018-12-27T13:28:05.598Z,0.20
2018-12-27T13:30:36.309Z,0.20
2018-12-27T13:33:06.832Z,0.10
2018-12-27T13:35:36.003Z,0.00
2018-12-27T13:38:05.580Z,0.00
2018-12-27T13:40:35.638Z,-0.10
2018-12-27T13:43:05.732Z,-0.10
2018-12-27T13:45:36.269Z,0.00
2018-12-27T13:48:09.260Z,0.00
2018-12-27T13:50:42.741Z,0.00
2018-12-27T13:53:14.669Z,-0.10
2018-12-27T13:55:44.433Z,-0.10
2018-12-27T13:58:16.518Z,0.00
2018-12-27T14:00:46.891Z,0.00
2018-12-27T14:03:20.417Z,0.00
2018-12-27T14:05:52.358Z,0.00
2018-12-27T14:08:24.213Z,0.00
2018-12-27T14:10:58.422Z,0.00
2018-12-27T14:13:30.376Z,0.00
2018-12-27T14:16:02.857Z,0.00
2018-12-27T14:18:35.514Z,-0.10
2018-12-27T14:21:08.267Z,-0.10
2018-12-27T14:23:42.301Z,-0.10
2018-12-27T14:26:14.180Z,-0.20
2018-12-27T14:28:46.123Z,-0.10
2018-12-27T14:31:19.133Z,-0.10
2018-12-27T14:33:55.438Z,-0.10
2018-12-27T14:36:26.232Z,-0.10
2018-12-27T14:38:59.511Z,-0.10
2018-12-27T14:41:30.116Z,-0.20
2018-12-27T14:44:00.269Z,-0.10
2018-12-27T14:46:30.226Z,-0.10
2018-12-27T14:49:00.416Z,-0.10
2018-12-27T14:51:30.127Z,0.00
2018-12-27T14:54:01.155Z,-0.10
2018-12-27T14:56:32.139Z,-0.10
2018-12-27T14:59:05.623Z,-0.10
2018-12-27T15:01:36.820Z,-0.10
2018-12-27T15:04:09.598Z,-0.10
2018-12-27T15:06:39.226Z,-0.10
2018-12-27T15:09:10.360Z,-0.10
2018-12-27T15:11:44.077Z,-0.20
2018-12-27T15:14:21.769Z,-0.20
2018-12-27T15:16:55.208Z,-0.30
2018-12-27T15:19:26.292Z,-0.30
2018-12-27T15:21:57.013Z,-0.30
2018-12-27T15:24:33.963Z,-0.30
2018-12-27T15:27:05.105Z,-0.30
2018-12-27T15:29:37.993Z,-0.30
2018-12-27T15:32:08.553Z,-0.40
2018-12-27T15:34:39.178Z,-0.40
2018-12-27T15:37:11.209Z,-0.40
2018-12-27T15:39:41.500Z,-0.50
2018-12-27T15:42:12.541Z,-0.40
2018-12-27T15:44:42.109Z,-0.40
2018-12-27T15:47:12.279Z,-0.40
2018-12-27T15:49:45.257Z,-0.40
2018-12-27T15:52:21.482Z,-0.40
2018-12-27T15:54:52.165Z,-0.40
2018-12-27T15:57:24.185Z,-0.30
2018-12-27T15:59:58.121Z,-0.40
2018-12-27T16:02:32.009Z,-0.40
2018-12-27T16:05:03.001Z,-0.50
2018-12-27T16:07:35.195Z,-0.40
2018-12-27T16:10:07.178Z,-0.40
2018-12-27T16:12:39.088Z,-0.30
2018-12-27T16:15:12.613Z,-0.30
2018-12-27T16:17:46.062Z,-0.30
2018-12-27T16:20:19.227Z,-0.20
2018-12-27T16:22:50.100Z,-0.30
2018-12-27T16:25:23.660Z,-0.30
2018-12-27T16:27:55.834Z,-0.20
2018-12-27T16:30:28.465Z,-0.30
2018-12-27T16:33:00.019Z,-0.40
2018-12-27T16:35:31.889Z,-0.30
2018-12-27T16:38:04.190Z,-0.30
2018-12-27T16:40:35.133Z,-0.30
2018-12-27T16:43:08.084Z,-0.40
2018-12-27T16:45:39.253Z,-0.40
2018-12-27T16:48:10.549Z,-0.30
2018-12-27T16:50:41.256Z,-0.30
2018-12-27T16:53:13.083Z,-0.30
2018-12-27T16:55:44.159Z,-0.20
2018-12-27T16:58:16.684Z,-0.20
2018-12-27T17:00:49.143Z,-0.20
2018-12-27T17:03:24.189Z,-0.20
2018-12-27T17:05:54.273Z,-0.20
2018-12-27T17:08:25.365Z,-0.20
2018-12-27T17:10:57.905Z,-0.30
2018-12-27T17:13:28.540Z,-0.30
2018-12-27T17:15:57.909Z,-0.40
2018-12-27T17:18:28.293Z,-0.40
2018-12-27T17:21:01.647Z,-0.50
2018-12-27T17:23:33.141Z,-0.50
2018-12-27T17:26:04.063Z,-0.50
2018-12-27T17:28:36.809Z,-0.60
2018-12-27T17:31:07.790Z,-0.60
2018-12-27T17:33:38.897Z,-0.60
2018-12-27T17:36:13.897Z,-0.60
2018-12-27T17:38:44.328Z,-0.70
2018-12-27T17:41:13.981Z,-0.70
2018-12-27T17:43:49.142Z,-0.70
2018-12-27T17:46:21.006Z,-0.70
2018-12-27T17:48:52.621Z,-0.70
2018-12-27T17:51:24.755Z,-0.70
2018-12-27T17:53:56.315Z,-0.80
2018-12-27T17:56:30.745Z,-0.70
2018-12-27T17:59:04.281Z,-0.50
2018-12-27T18:01:37.042Z,-0.50
2018-12-27T18:04:06.354Z,-0.60
2018-12-27T18:06:37.072Z,-0.70
2018-12-27T18:09:10.637Z,-0.60
2018-12-27T18:11:42.189Z,-0.60
2018-12-27T18:14:13.617Z,-0.60
2018-12-27T18:16:47.081Z,-0.60
2018-12-27T18:19:19.401Z,-0.60
2018-12-27T18:21:51.921Z,-0.60
2018-12-27T18:24:24.153Z,-0.50
2018-12-27T18:26:54.696Z,-0.40
2018-12-27T18:29:30.701Z,-0.20
2018-12-27T18:32:05.192Z,-0.20
2018-12-27T18:34:37.684Z,-0.30
2018-12-27T18:37:10.170Z,-0.40
2018-12-27T18:39:38.892Z,-0.30
2018-12-27T18:42:09.916Z,-0.30
2018-12-27T18:44:44.873Z,-0.20
2018-12-27T18:47:15.670Z,-0.10
2018-12-27T18:49:47.437Z,-0.20
2018-12-27T18:52:20.157Z,-0.20
2018-12-27T18:54:49.178Z,-0.30
2018-12-27T18:57:20.082Z,-0.10
2018-12-27T18:59:51.736Z,-0.10
2018-12-27T19:02:23.824Z,-0.10
2018-12-27T19:04:56.105Z,-0.10
2018-12-27T19:07:28.520Z,-0.10
2018-12-27T19:09:59.377Z,0.00
2018-12-27T19:12:47.562Z,-0.30
2018-12-27T19:15:20.301Z,-0.40
2018-12-27T19:18:03.089Z,-0.50
2018-12-27T19:20:35.511Z,-0.50
2018-12-27T19:23:10.953Z,-0.50
2018-12-27T19:25:44.009Z,-0.50
2018-12-27T19:28:17.318Z,-0.50
2018-12-27T19:30:48.785Z,-0.40
2018-12-27T19:33:22.338Z,-0.50
2018-12-27T19:35:54.648Z,-0.40
2018-12-27T19:38:28.428Z,-0.30
2018-12-27T19:41:00.149Z,-0.30
2018-12-27T19:43:29.018Z,-0.20
2018-12-27T19:45:59.784Z,-0.20
2018-12-27T19:48:30.653Z,-0.20
2018-12-27T19:51:04.653Z,-0.10
2018-12-27T19:53:36.445Z,0.00
2018-12-27T19:56:08.043Z,0.00
2018-12-27T19:58:44.369Z,0.10
2018-12-27T20:01:15.688Z,0.10
2018-12-27T20:03:47.957Z,0.20
2018-12-27T20:06:19.605Z,0.10
2018-12-27T20:08:51.576Z,0.10
2018-12-27T20:11:26.367Z,0.00
2018-12-27T20:13:57.636Z,-0.10
2018-12-27T20:16:31.084Z,-0.20
2018-12-27T20:19:01.814Z,-0.20
2018-12-27T20:21:31.946Z,-0.20
2018-12-27T20:24:02.577Z,-0.20
2018-12-27T20:26:34.025Z,-0.20
2018-12-27T20:29:04.813Z,-0.20
2018-12-27T20:31:36.061Z,-0.30
2018-12-27T20:34:05.657Z,-0.30
2018-12-27T20:36:38.776Z,-0.30
2018-12-27T20:39:09.818Z,-0.20
2018-12-27T20:41:45.083Z,-0.30
2018-12-27T20:44:18.660Z,-0.30
2018-12-27T20:46:50.508Z,-0.40
2018-12-27T20:49:23.925Z,-0.30
2018-12-27T20:51:57.640Z,-0.40
2018-12-27T20:54:29.765Z,-0.30
2018-12-27T20:57:00.578Z,-0.20
2018-12-27T20:59:32.141Z,-0.30
2018-12-27T21:02:04.554Z,-0.40
2018-12-27T21:04:35.465Z,-0.30
2018-12-27T21:07:06.435Z,-0.30
2018-12-27T21:09:35.538Z,-0.30
2018-12-27T21:12:05.097Z,-0.40
2018-12-27T21:14:35.765Z,-0.40
2018-12-27T21:17:12.296Z,-0.40
2018-12-27T21:19:43.379Z,-0.30
2018-12-27T21:22:16.393Z,-0.30
2018-12-27T21:25:04.665Z,-0.30
2018-12-27T21:27:35.952Z,-0.30
2018-12-27T21:30:07.880Z,-0.30
2018-12-27T21:32:40.374Z,-0.40
2018-12-27T21:35:13.498Z,-0.30
2018-12-27T21:37:46.931Z,-0.30
2018-12-27T21:40:17.953Z,-0.20
2018-12-27T21:42:50.549Z,-0.20
2018-12-27T21:45:24.567Z,-0.20
2018-12-27T21:47:55.819Z,-0.20
2018-12-27T21:50:27.917Z,-0.20
2018-12-27T21:52:59.633Z,-0.20
2018-12-27T21:55:30.644Z,-0.20
2018-12-27T21:58:02.163Z,-0.20
2018-12-27T22:00:38.989Z,-0.20
2018-12-27T22:03:10.869Z,-0.30
2018-12-27T22:05:42.422Z,-0.20
2018-12-27T22:08:18.177Z,-0.20
2018-12-27T22:10:49.654Z,-0.10
2018-12-27T22:13:21.719Z,-0.10
2018-12-27T22:15:52.639Z,0.00
2018-12-27T22:18:22.443Z,0.00
2018-12-27T22:20:53.450Z,0.00
2018-12-27T22:23:26.289Z,0.00
2018-12-27T22:25:57.409Z,0.00
2018-12-27T22:28:26.474Z,-0.10
2018-12-27T22:30:56.544Z,0.00
2018-12-27T22:33:26.449Z,0.00
2018-12-27T22:35:56.973Z,-0.10
2018-12-27T22:38:28.067Z,-0.20
2018-12-27T22:41:01.482Z,-0.30
2018-12-27T22:43:33.815Z,-0.20
2018-12-27T22:46:06.250Z,-0.30
2018-12-27T22:48:36.972Z,-0.30
2018-12-27T22:51:08.196Z,-0.40
2018-12-27T22:53:40.401Z,-0.30
2018-12-27T22:56:13.556Z,-0.30
2018-12-27T22:59:02.437Z,-0.30
2018-12-27T23:01:33.495Z,-0.30
2018-12-27T23:04:05.709Z,-0.30
2018-12-27T23:06:40.754Z,-0.40
2018-12-27T23:09:12.498Z,-0.40
2018-12-27T23:11:42.514Z,-0.40
2018-12-27T23:14:12.346Z,-0.40
2018-12-27T23:16:43.337Z,-0.50
2018-12-27T23:19:13.476Z,-0.50
2018-12-27T23:21:44.629Z,-0.50
2018-12-27T23:24:15.314Z,-0.60
2018-12-27T23:26:47.508Z,-0.60
2018-12-27T23:29:19.564Z,-0.60
2018-12-27T23:31:50.741Z,-0.60
2018-12-27T23:34:24.321Z,-0.60
2018-12-27T23:36:55.308Z,-0.60
2018-12-27T23:39:27.518Z,-0.60
2018-12-27T23:41:58.207Z,-0.60
2018-12-27T23:44:28.885Z,-0.60
2018-12-27T23:47:01.113Z,-0.50
2018-12-27T23:49:37.745Z,-0.50
2018-12-27T23:52:11.116Z,-0.50
2018-12-27T23:54:42.577Z,-0.50
2018-12-27T23:57:13.045Z,-0.50
2018-12-27T23:59:45.173Z,-0.50
